24  °C
Temperature
14  °C
  Dewpoint
   Humidity
Temp | Dewpoint | Humidity
19  km/h
Wind Speed
12  mph
Wind Speed
10  kts
Wind Speed
210°
South South
West

Wind Speed
Partly Cloudy
Conditions
Pressure 1011.92 (hPa) - 29.88 (in)
Visibility 6.2 (mi) - 10.0 (km)

Current Conditions
LGTS
Location 6km (3.2mi)
Metar :LGTS 251650Z 21010KT 9999 FEW025 24/14 Q1012 NOSIG
Sat 25th May 18:50 pm

Airport
  Metar Aviation API Data Provided by https://www.checkwx.com/ CSS/SVG/PHP scripts by weather34.com © 2015-2019